createdAt,value
2022-10-25T00:02:17.391Z,100.00
2022-10-25T00:04:45.964Z,100.00
2022-10-25T00:07:15.381Z,100.00
2022-10-25T00:09:43.620Z,100.00
2022-10-25T00:12:11.327Z,100.00
2022-10-25T00:14:39.155Z,100.00
2022-10-25T00:17:06.886Z,100.00
2022-10-25T00:19:34.669Z,100.00
2022-10-25T00:22:02.492Z,100.00
2022-10-25T00:24:31.569Z,100.00
2022-10-25T00:26:59.375Z,100.00
2022-10-25T00:29:27.274Z,100.00
2022-10-25T00:31:54.959Z,100.00
2022-10-25T00:34:22.704Z,100.00
2022-10-25T00:36:50.449Z,100.00
2022-10-25T00:39:18.279Z,100.00
2022-10-25T00:41:47.407Z,100.00
2022-10-25T00:44:49.812Z,100.00
2022-10-25T00:47:39.904Z,100.00
2022-10-25T00:50:15.625Z,100.00
2022-10-25T00:52:45.432Z,100.00
2022-10-25T00:55:14.957Z,100.00
2022-10-25T00:57:48.562Z,100.00
2022-10-25T01:00:16.777Z,100.00
2022-10-25T01:02:44.621Z,100.00
2022-10-25T01:05:13.095Z,100.00
2022-10-25T01:07:40.847Z,100.00
2022-10-25T01:10:09.000Z,100.00
2022-10-25T01:12:36.788Z,100.00
2022-10-25T01:15:07.080Z,100.00
2022-10-25T01:17:43.521Z,100.00
2022-10-25T01:20:33.316Z,100.00
2022-10-25T01:23:13.556Z,100.00
2022-10-25T01:26:00.804Z,100.00
2022-10-25T01:28:41.038Z,100.00
2022-10-25T01:31:27.457Z,100.00
2022-10-25T01:33:58.771Z,100.00
2022-10-25T01:36:36.137Z,100.00
2022-10-25T01:39:10.036Z,100.00
2022-10-25T01:41:45.584Z,100.00
2022-10-25T01:44:20.801Z,100.00
2022-10-25T01:46:54.546Z,100.00
2022-10-25T01:49:29.693Z,100.00
2022-10-25T01:51:57.530Z,100.00
2022-10-25T01:54:27.015Z,100.00
2022-10-25T01:57:10.374Z,100.00
2022-10-25T02:00:02.985Z,100.00
2022-10-25T02:03:00.740Z,100.00
2022-10-25T02:05:34.624Z,100.00
2022-10-25T02:08:07.508Z,100.00
2022-10-25T02:10:41.984Z,100.00
2022-10-25T02:13:19.458Z,100.00
2022-10-25T02:15:54.805Z,100.00
2022-10-25T02:18:28.335Z,100.00
2022-10-25T02:20:58.030Z,100.00
2022-10-25T02:23:27.455Z,100.00
2022-10-25T02:25:55.915Z,100.00
2022-10-25T02:28:27.838Z,100.00
2022-10-25T02:30:58.071Z,100.00
2022-10-25T02:33:27.369Z,100.00
2022-10-25T02:36:09.897Z,100.00
2022-10-25T02:38:38.377Z,100.00
2022-10-25T02:41:07.578Z,100.00
2022-10-25T02:43:35.627Z,100.00
2022-10-25T02:46:07.880Z,100.00
2022-10-25T02:48:37.342Z,100.00
2022-10-25T02:51:05.196Z,100.00
2022-10-25T02:53:33.484Z,100.00
2022-10-25T02:56:02.447Z,100.00
2022-10-25T02:58:32.249Z,100.00
2022-10-25T03:01:00.939Z,100.00
2022-10-25T03:03:29.374Z,100.00
2022-10-25T03:05:59.298Z,100.00
2022-10-25T03:11:01.100Z,100.00
2022-10-25T03:13:29.155Z,100.00
2022-10-25T03:15:56.840Z,100.00
2022-10-25T03:18:24.760Z,100.00
2022-10-25T03:20:52.574Z,100.00
2022-10-25T03:23:21.934Z,100.00
2022-10-25T03:25:54.259Z,100.00
2022-10-25T03:28:22.547Z,100.00
2022-10-25T03:30:50.786Z,100.00
2022-10-25T03:33:18.585Z,100.00
2022-10-25T03:35:46.402Z,100.00
2022-10-25T03:38:14.125Z,100.00
2022-10-25T03:40:43.772Z,100.00
2022-10-25T03:43:11.581Z,100.00
2022-10-25T03:45:39.569Z,100.00
2022-10-25T03:48:07.716Z,100.00
2022-10-25T03:50:36.011Z,100.00
2022-10-25T03:53:04.277Z,100.00
2022-10-25T03:55:32.134Z,100.00
2022-10-25T03:58:01.708Z,100.00
2022-10-25T04:00:30.097Z,100.00
2022-10-25T04:03:02.002Z,100.00
2022-10-25T04:05:30.742Z,100.00
2022-10-25T04:07:58.722Z,100.00
2022-10-25T04:10:26.942Z,100.00
2022-10-25T04:12:55.287Z,100.00
2022-10-25T04:15:25.058Z,100.00
2022-10-25T04:17:53.869Z,100.00
2022-10-25T04:20:22.225Z,100.00
2022-10-25T04:22:54.756Z,100.00
2022-10-25T04:25:22.728Z,100.00
2022-10-25T04:27:50.442Z,100.00
2022-10-25T04:30:18.728Z,100.00
2022-10-25T04:32:48.009Z,100.00
2022-10-25T04:35:16.052Z,100.00
2022-10-25T04:37:43.800Z,100.00
2022-10-25T04:40:12.539Z,100.00
2022-10-25T04:42:40.435Z,100.00
2022-10-25T04:45:08.946Z,100.00
2022-10-25T04:47:37.088Z,100.00
2022-10-25T04:50:07.296Z,100.00
2022-10-25T04:52:35.056Z,100.00
2022-10-25T04:55:02.823Z,100.00
2022-10-25T04:57:30.605Z,100.00
2022-10-25T04:59:59.116Z,100.00
2022-10-25T05:02:26.934Z,100.00
2022-10-25T05:04:54.728Z,100.00
2022-10-25T05:07:23.910Z,100.00
2022-10-25T05:09:51.591Z,100.00
2022-10-25T05:12:19.332Z,100.00
2022-10-25T05:14:47.223Z,100.00
2022-10-25T05:17:14.953Z,100.00
2022-10-25T05:19:42.697Z,100.00
2022-10-25T05:22:10.401Z,100.00
2022-10-25T05:24:39.470Z,100.00
2022-10-25T05:27:07.409Z,100.00
2022-10-25T05:29:35.472Z,100.00
2022-10-25T05:32:03.245Z,100.00
2022-10-25T05:34:31.032Z,100.00
2022-10-25T05:36:58.905Z,100.00
2022-10-25T05:39:27.040Z,100.00
2022-10-25T05:41:56.109Z,100.00
2022-10-25T05:44:23.815Z,100.00
2022-10-25T05:46:51.703Z,100.00
2022-10-25T05:49:19.847Z,100.00
2022-10-25T05:51:47.548Z,100.00
2022-10-25T05:54:16.502Z,100.00
2022-10-25T05:56:44.801Z,100.00
2022-10-25T05:59:15.700Z,100.00
2022-10-25T06:01:45.677Z,100.00
2022-10-25T06:04:14.495Z,100.00
2022-10-25T06:06:43.522Z,100.00
2022-10-25T06:09:11.937Z,100.00
2022-10-25T06:11:40.304Z,100.00
2022-10-25T06:14:08.404Z,100.00
2022-10-25T06:16:38.527Z,100.00
2022-10-25T06:19:06.315Z,100.00
2022-10-25T06:21:34.533Z,100.00
2022-10-25T06:24:02.308Z,100.00
2022-10-25T06:26:31.560Z,100.00
2022-10-25T06:29:01.143Z,100.00
2022-10-25T06:31:30.080Z,100.00
2022-10-25T06:33:59.772Z,100.00
2022-10-25T06:36:27.841Z,100.00
2022-10-25T06:38:55.761Z,100.00
2022-10-25T06:41:25.258Z,100.00
2022-10-25T06:43:53.116Z,100.00
2022-10-25T06:46:23.206Z,100.00
2022-10-25T06:48:51.412Z,100.00
2022-10-25T06:51:20.814Z,100.00
2022-10-25T06:53:48.734Z,100.00
2022-10-25T06:56:16.453Z,100.00
2022-10-25T06:58:44.674Z,100.00
2022-10-25T07:01:14.717Z,100.00
2022-10-25T07:03:43.143Z,100.00
2022-10-25T07:06:12.277Z,100.00
2022-10-25T07:08:43.595Z,100.00
2022-10-25T07:11:15.012Z,100.00
2022-10-25T07:13:42.839Z,100.00
2022-10-25T07:16:12.325Z,100.00
2022-10-25T07:18:40.372Z,100.00
2022-10-25T07:21:09.801Z,100.00
2022-10-25T07:23:42.244Z,100.00
2022-10-25T07:26:12.992Z,100.00
2022-10-25T07:28:41.472Z,100.00
2022-10-25T07:31:12.196Z,100.00
2022-10-25T07:33:40.192Z,100.00
2022-10-25T07:36:11.943Z,100.00
2022-10-25T07:38:40.595Z,100.00
2022-10-25T07:41:09.409Z,100.00
2022-10-25T07:43:39.059Z,100.00
2022-10-25T07:46:07.822Z,100.00
2022-10-25T07:48:36.162Z,100.00
2022-10-25T07:51:05.783Z,99.88
2022-10-25T07:53:33.584Z,99.32
2022-10-25T07:56:01.269Z,100.00
2022-10-25T07:58:29.073Z,98.78
2022-10-25T08:01:03.506Z,99.46
2022-10-25T08:03:32.228Z,99.74
2022-10-25T08:06:00.561Z,99.04
2022-10-25T08:08:28.645Z,99.51
2022-10-25T08:10:56.897Z,100.00
2022-10-25T08:13:24.906Z,99.86
2022-10-25T08:15:53.355Z,99.07
2022-10-25T08:18:23.101Z,97.31
2022-10-25T08:21:06.512Z,96.02
2022-10-25T08:23:34.622Z,93.84
2022-10-25T08:26:02.915Z,91.10
2022-10-25T08:28:31.704Z,91.16
2022-10-25T08:31:00.658Z,88.36
2022-10-25T08:33:30.445Z,87.63
2022-10-25T08:36:01.484Z,87.30
2022-10-25T08:38:29.854Z,86.01
2022-10-25T08:41:04.295Z,85.99
2022-10-25T08:46:37.930Z,85.19
2022-10-25T08:49:15.499Z,85.49
2022-10-25T08:51:47.113Z,84.79
2022-10-25T08:54:23.188Z,84.90
2022-10-25T08:57:10.549Z,82.84
2022-10-25T08:59:44.034Z,84.41
2022-10-25T09:02:18.610Z,83.79
2022-10-25T09:04:47.889Z,83.87
2022-10-25T09:07:37.387Z,82.63
2022-10-25T09:10:19.027Z,82.36
2022-10-25T09:12:52.911Z,80.17
2022-10-25T09:15:32.118Z,80.28
2022-10-25T09:18:03.572Z,79.42
2022-10-25T09:20:38.404Z,79.45
2022-10-25T09:23:15.825Z,76.58
2022-10-25T09:25:52.906Z,71.46
2022-10-25T09:28:26.397Z,70.65
2022-10-25T09:30:58.219Z,71.25
2022-10-25T09:33:30.500Z,70.40
2022-10-25T09:36:00.808Z,72.10
2022-10-25T09:38:35.669Z,68.59
2022-10-25T09:41:06.455Z,67.67
2022-10-25T09:43:40.070Z,68.85
2022-10-25T09:46:14.944Z,69.34
2022-10-25T09:48:49.253Z,69.80
2022-10-25T09:51:25.197Z,70.76
2022-10-25T09:53:54.635Z,72.18
2022-10-25T09:56:22.481Z,71.64
2022-10-25T09:58:50.320Z,71.25
2022-10-25T10:01:21.715Z,72.97
2022-10-25T10:03:53.182Z,72.62
2022-10-25T10:06:29.397Z,73.25
2022-10-25T10:09:03.035Z,72.37
2022-10-25T10:11:33.340Z,73.64
2022-10-25T10:14:09.194Z,73.74
2022-10-25T10:16:44.943Z,72.05
2022-10-25T10:19:18.267Z,73.33
2022-10-25T10:21:49.804Z,73.82
2022-10-25T10:24:21.029Z,72.21
2022-10-25T10:26:54.136Z,72.72
2022-10-25T10:29:23.837Z,73.13
2022-10-25T10:31:54.557Z,71.82
2022-10-25T10:34:28.174Z,71.56
2022-10-25T10:37:05.600Z,71.80
2022-10-25T10:39:33.372Z,70.83
2022-10-25T10:42:04.083Z,70.71
2022-10-25T10:44:34.823Z,71.32
2022-10-25T10:47:12.499Z,68.72
2022-10-25T10:49:43.119Z,69.82
2022-10-25T10:52:28.896Z,68.79
2022-10-25T10:54:57.959Z,68.23
2022-10-25T10:57:31.400Z,67.41
2022-10-25T11:00:00.509Z,70.10
2022-10-25T11:02:47.610Z,68.87
2022-10-25T11:05:22.098Z,69.13
2022-10-25T11:07:57.132Z,68.33
2022-10-25T11:10:28.990Z,68.01
2022-10-25T11:13:14.244Z,66.58
2022-10-25T11:15:58.844Z,67.70
2022-10-25T11:18:36.276Z,68.42
2022-10-25T11:21:13.984Z,66.25
2022-10-25T11:23:56.956Z,65.63
2022-10-25T11:26:33.412Z,66.60
2022-10-25T11:29:09.736Z,65.06
2022-10-25T11:31:58.275Z,64.34
2022-10-25T11:34:37.619Z,64.79
2022-10-25T11:37:14.245Z,64.83
2022-10-25T11:39:52.416Z,64.83
2022-10-25T11:42:36.764Z,66.25
2022-10-25T11:45:20.899Z,66.84
2022-10-25T11:48:04.079Z,65.72
2022-10-25T11:50:41.280Z,65.17
2022-10-25T11:53:25.825Z,65.33
2022-10-25T11:55:59.926Z,65.16
2022-10-25T11:58:40.513Z,65.50
2022-10-25T12:01:21.397Z,65.60
2022-10-25T12:04:15.473Z,65.69
2022-10-25T12:06:53.191Z,66.42
2022-10-25T12:09:33.525Z,65.51
2022-10-25T12:12:06.044Z,65.91
2022-10-25T12:14:37.997Z,65.47
2022-10-25T12:17:08.429Z,65.55
2022-10-25T12:19:44.831Z,64.77
2022-10-25T12:22:18.495Z,64.09
2022-10-25T12:24:50.754Z,63.87
2022-10-25T12:27:22.821Z,64.26
2022-10-25T12:29:55.337Z,63.60
2022-10-25T12:32:28.512Z,64.24
2022-10-25T12:34:59.252Z,63.59
2022-10-25T12:37:36.578Z,63.92
2022-10-25T12:40:05.515Z,62.76
2022-10-25T12:42:42.971Z,62.93
2022-10-25T12:45:35.832Z,63.11
2022-10-25T12:48:17.973Z,62.15
2022-10-25T12:51:01.807Z,61.30
2022-10-25T12:54:03.716Z,59.58
2022-10-25T12:56:45.197Z,60.19
2022-10-25T12:59:35.146Z,60.05
2022-10-25T13:02:22.141Z,61.44
2022-10-25T13:05:17.765Z,61.96
2022-10-25T13:07:45.673Z,62.33
2022-10-25T13:10:19.604Z,63.59
2022-10-25T13:13:00.035Z,63.63
2022-10-25T13:15:40.070Z,64.06
2022-10-25T13:18:26.824Z,64.15
2022-10-25T13:20:55.138Z,63.89
2022-10-25T13:23:58.359Z,63.41
2022-10-25T13:26:32.700Z,62.18
2022-10-25T13:29:02.681Z,63.32
2022-10-25T13:32:10.240Z,62.73
2022-10-25T13:34:40.220Z,61.39
2022-10-25T13:37:44.589Z,62.43
2022-10-25T13:40:24.620Z,62.48
2022-10-25T13:43:02.248Z,62.74
2022-10-25T13:45:41.339Z,64.09
2022-10-25T13:48:20.075Z,63.48
2022-10-25T13:50:53.445Z,62.45
2022-10-25T13:53:24.215Z,61.54
2022-10-25T13:56:03.509Z,62.23
2022-10-25T13:58:49.057Z,62.38
2022-10-25T14:01:56.765Z,63.16
2022-10-25T14:04:40.908Z,62.53
2022-10-25T14:07:43.297Z,62.59
2022-10-25T14:10:26.154Z,62.11
2022-10-25T14:13:01.054Z,61.13
2022-10-25T14:15:40.706Z,59.89
2022-10-25T14:18:14.736Z,60.49
2022-10-25T14:20:46.455Z,60.04
2022-10-25T14:23:18.907Z,58.29
2022-10-25T14:25:52.154Z,58.10
2022-10-25T14:28:24.336Z,58.20
2022-10-25T14:30:55.979Z,59.27
2022-10-25T14:33:29.685Z,59.34
2022-10-25T14:36:08.074Z,59.00
2022-10-25T14:38:39.669Z,58.91
2022-10-25T14:41:13.370Z,59.00
2022-10-25T14:43:42.944Z,60.44
2022-10-25T14:46:14.177Z,57.96
2022-10-25T14:48:43.059Z,58.88
2022-10-25T14:51:19.468Z,60.13
2022-10-25T14:53:52.084Z,59.53
2022-10-25T14:56:23.516Z,59.93
2022-10-25T14:58:51.894Z,60.43
2022-10-25T15:01:22.797Z,60.91
2022-10-25T15:03:55.473Z,61.15
2022-10-25T15:06:27.842Z,61.07
2022-10-25T15:09:16.285Z,62.01
2022-10-25T15:12:03.575Z,61.85
2022-10-25T15:14:32.104Z,63.14
2022-10-25T15:17:03.137Z,62.96
2022-10-25T15:19:30.794Z,63.21
2022-10-25T15:22:10.554Z,63.61
2022-10-25T15:24:44.937Z,63.63
2022-10-25T15:27:27.207Z,63.50
2022-10-25T15:29:54.979Z,64.89
2022-10-25T15:32:25.322Z,65.73
2022-10-25T15:34:54.863Z,65.92
2022-10-25T15:37:26.284Z,65.51
2022-10-25T15:39:55.956Z,67.07
2022-10-25T15:42:25.586Z,66.45
2022-10-25T15:44:53.312Z,67.98
2022-10-25T15:47:32.812Z,66.56
2022-10-25T15:50:02.980Z,68.33
2022-10-25T15:52:32.095Z,67.38
2022-10-25T15:54:59.788Z,68.94
2022-10-25T15:57:28.195Z,69.88
2022-10-25T15:59:55.841Z,70.47
2022-10-25T16:02:27.050Z,72.51
2022-10-25T16:04:54.947Z,72.66
2022-10-25T16:07:23.152Z,72.39
2022-10-25T16:09:52.210Z,74.08
2022-10-25T16:12:22.497Z,75.15
2022-10-25T16:14:51.365Z,75.87
2022-10-25T16:17:19.330Z,76.92
2022-10-25T16:19:47.229Z,77.65
2022-10-25T16:22:15.010Z,77.76
2022-10-25T16:24:42.755Z,78.35
2022-10-25T16:27:12.966Z,80.03
2022-10-25T16:29:40.753Z,80.00
2022-10-25T16:32:08.524Z,80.07
2022-10-25T16:34:36.197Z,81.29
2022-10-25T16:37:06.597Z,81.24
2022-10-25T16:39:39.249Z,80.91
2022-10-25T16:42:29.304Z,80.80
2022-10-25T16:44:57.389Z,81.42
2022-10-25T16:47:25.371Z,80.94
2022-10-25T16:49:53.246Z,81.02
2022-10-25T16:52:21.645Z,82.23
2022-10-25T16:54:49.361Z,82.58
2022-10-25T16:57:17.298Z,82.68
2022-10-25T16:59:46.508Z,82.39
2022-10-25T17:02:18.416Z,81.96
2022-10-25T17:04:46.454Z,83.09
2022-10-25T17:07:14.220Z,83.41
2022-10-25T17:09:42.813Z,83.59
2022-10-25T17:12:10.991Z,84.01
2022-10-25T17:14:38.772Z,84.14
2022-10-25T17:17:08.133Z,84.89
2022-10-25T17:19:36.921Z,84.31
2022-10-25T17:22:04.695Z,84.11
2022-10-25T17:24:35.835Z,84.01
2022-10-25T17:29:36.229Z,85.01
2022-10-25T17:32:03.960Z,85.31
2022-10-25T17:34:33.033Z,85.98
2022-10-25T17:37:02.189Z,85.47
2022-10-25T17:39:30.481Z,86.15
2022-10-25T17:41:58.288Z,86.95
2022-10-25T17:44:26.005Z,88.03
2022-10-25T17:46:53.742Z,88.55
2022-10-25T17:49:21.926Z,88.60
2022-10-25T17:51:51.049Z,88.13
2022-10-25T17:54:19.105Z,88.97
2022-10-25T17:56:46.960Z,89.53
2022-10-25T17:59:14.765Z,90.05
2022-10-25T18:01:42.912Z,90.15
2022-10-25T18:04:10.806Z,89.81
2022-10-25T18:06:38.971Z,89.73
2022-10-25T18:09:08.192Z,90.31
2022-10-25T18:11:36.485Z,90.48
2022-10-25T18:14:05.037Z,90.29
2022-10-25T18:16:33.929Z,91.00
2022-10-25T18:19:04.320Z,91.82
2022-10-25T18:21:33.328Z,92.21
2022-10-25T18:24:03.280Z,92.94
2022-10-25T18:26:33.835Z,93.77
2022-10-25T18:29:01.786Z,93.73
2022-10-25T18:31:29.779Z,93.58
2022-10-25T18:33:59.044Z,93.05
2022-10-25T18:36:27.727Z,92.36
2022-10-25T18:38:56.031Z,92.21
2022-10-25T18:41:25.885Z,92.11
2022-10-25T18:43:55.726Z,92.97
2022-10-25T18:46:25.125Z,93.43
2022-10-25T18:48:53.859Z,94.22
2022-10-25T18:51:23.605Z,94.19
2022-10-25T18:53:54.348Z,94.56
2022-10-25T18:56:22.351Z,94.82
2022-10-25T18:58:50.774Z,94.97
2022-10-25T19:01:22.615Z,96.15
2022-10-25T19:03:51.062Z,96.34
2022-10-25T19:06:19.498Z,96.54
2022-10-25T19:08:49.158Z,96.71
2022-10-25T19:11:17.396Z,96.38
2022-10-25T19:13:48.861Z,95.98
2022-10-25T19:16:20.458Z,95.82
2022-10-25T19:18:48.707Z,96.09
2022-10-25T19:21:18.301Z,96.32
2022-10-25T19:23:46.529Z,96.07
2022-10-25T19:26:16.585Z,96.55
2022-10-25T19:28:44.748Z,97.30
2022-10-25T19:31:14.114Z,98.35
2022-10-25T19:33:47.387Z,98.02
2022-10-25T19:36:15.949Z,97.75
2022-10-25T19:38:45.213Z,97.39
2022-10-25T19:41:16.089Z,98.00
2022-10-25T19:43:44.136Z,99.15
2022-10-25T19:46:12.656Z,99.56
2022-10-25T19:48:40.736Z,99.83
2022-10-25T19:51:11.518Z,100.00
2022-10-25T19:53:39.488Z,99.60
2022-10-25T19:56:09.697Z,99.25
2022-10-25T19:58:37.818Z,98.96
2022-10-25T20:01:07.809Z,98.54
2022-10-25T20:03:36.412Z,98.64
2022-10-25T20:06:06.957Z,99.62
2022-10-25T20:08:37.952Z,100.00
2022-10-25T20:11:06.328Z,100.00
2022-10-25T20:13:34.184Z,100.00
2022-10-25T20:16:02.757Z,100.00
2022-10-25T20:18:32.682Z,100.00
2022-10-25T20:21:02.752Z,100.00
2022-10-25T20:23:31.444Z,100.00
2022-10-25T20:26:00.588Z,100.00
2022-10-25T20:28:28.643Z,100.00
2022-10-25T20:31:03.082Z,100.00
2022-10-25T20:33:33.053Z,100.00
2022-10-25T20:36:03.367Z,100.00
2022-10-25T20:38:31.514Z,100.00
2022-10-25T20:41:05.184Z,100.00
2022-10-25T20:43:33.700Z,100.00
2022-10-25T20:46:02.095Z,100.00
2022-10-25T20:48:30.095Z,100.00
2022-10-25T20:50:58.520Z,100.00
2022-10-25T20:53:26.314Z,100.00
2022-10-25T20:55:54.662Z,100.00
2022-10-25T20:58:24.411Z,100.00
2022-10-25T21:00:55.114Z,100.00
2022-10-25T21:03:23.057Z,100.00
2022-10-25T21:05:53.526Z,100.00
2022-10-25T21:08:22.912Z,100.00
2022-10-25T21:10:54.091Z,100.00
2022-10-25T21:13:23.352Z,100.00
2022-10-25T21:15:51.830Z,100.00
2022-10-25T21:18:20.064Z,100.00
2022-10-25T21:20:49.189Z,100.00
2022-10-25T21:23:17.252Z,100.00
2022-10-25T21:25:45.007Z,100.00
2022-10-25T21:28:12.802Z,100.00
2022-10-25T21:30:42.196Z,100.00
2022-10-25T21:33:09.894Z,100.00
2022-10-25T21:35:37.659Z,100.00
2022-10-25T21:38:05.419Z,100.00
2022-10-25T21:40:33.116Z,100.00
2022-10-25T21:43:00.923Z,100.00
2022-10-25T21:45:28.769Z,100.00
2022-10-25T21:47:58.107Z,100.00
2022-10-25T21:50:25.867Z,100.00
2022-10-25T21:52:54.393Z,100.00
2022-10-25T21:55:22.126Z,100.00
2022-10-25T21:57:54.035Z,100.00
2022-10-25T22:00:22.268Z,100.00
2022-10-25T22:02:50.102Z,100.00
2022-10-25T22:05:19.188Z,100.00
2022-10-25T22:07:47.246Z,100.00
2022-10-25T22:10:15.285Z,100.00
2022-10-25T22:12:42.988Z,100.00
2022-10-25T22:15:11.033Z,100.00
2022-10-25T22:17:38.704Z,100.00
2022-10-25T22:20:07.841Z,100.00
2022-10-25T22:22:36.943Z,100.00
2022-10-25T22:25:04.984Z,100.00
2022-10-25T22:27:32.725Z,100.00
2022-10-25T22:30:00.428Z,100.00
2022-10-25T22:32:28.155Z,100.00
2022-10-25T22:34:57.386Z,100.00
2022-10-25T22:37:25.047Z,99.83
2022-10-25T22:39:54.126Z,99.62
2022-10-25T22:42:21.921Z,99.37
2022-10-25T22:44:49.632Z,98.79
2022-10-25T22:47:17.319Z,99.06
2022-10-25T22:49:45.005Z,99.08
2022-10-25T22:52:13.682Z,98.98
2022-10-25T22:54:41.447Z,98.52
2022-10-25T22:57:10.525Z,98.75
2022-10-25T22:59:38.204Z,98.39
2022-10-25T23:02:06.277Z,98.39
2022-10-25T23:04:34.159Z,98.13
2022-10-25T23:07:01.940Z,98.28
2022-10-25T23:09:29.760Z,98.15
2022-10-25T23:11:57.560Z,97.87
2022-10-25T23:14:26.609Z,97.77
2022-10-25T23:16:54.280Z,97.39
2022-10-25T23:19:22.245Z,97.58
2022-10-25T23:21:49.925Z,97.50
2022-10-25T23:24:17.825Z,97.16
2022-10-25T23:26:45.549Z,97.21
2022-10-25T23:29:13.867Z,97.46
2022-10-25T23:31:42.941Z,97.54
2022-10-25T23:34:11.637Z,97.71
2022-10-25T23:36:39.423Z,97.21
2022-10-25T23:39:08.286Z,96.87
2022-10-25T23:41:36.532Z,96.80
2022-10-25T23:44:04.497Z,97.10
2022-10-25T23:46:32.899Z,96.95
2022-10-25T23:49:02.021Z,96.77
2022-10-25T23:51:29.970Z,96.89
2022-10-25T23:53:57.777Z,97.08
2022-10-25T23:56:25.552Z,96.34
2022-10-25T23:58:54.020Z,96.38
